Time;durP1;ratioP1;P1;durP2;ratioP2;P2;SDS_P1;SDS_P2;PMS_P1;PMS_P2;Temp;Humidity;BMP_temperature;BMP_pressure;BME280_temperature;BME280_humidity;BME280_pressure;Samples;Min_cycle;Max_cycle;Signal;HPM_P1;HPM_P2
2023/07/10 00:01:26;;;;;;;;;;;;;;;24.47;32.79;100837.56;4929628;28;98257;-70
2023/07/10 00:03:52;;;;;;;;;;;;;;;24.45;32.76;100828.84;4923135;27;100023;-69
2023/07/10 00:06:18;;;;;;;;;;;;;;;24.41;32.78;100827.97;4927824;27;98043;-70
2023/07/10 00:08:44;;;;;;;;;;;;;;;24.36;32.46;100828.16;4930265;28;98002;-70
2023/07/10 00:11:14;;;;;;;;;;;;;;;24.32;32.60;100827.25;4948250;28;98183;-73
2023/07/10 00:13:41;;;;;;;;;;;;;;;24.27;32.60;100827.53;4930211;27;98214;-74
2023/07/10 00:16:12;;;;;;;;;;;;;;;24.22;32.47;100825.84;4944487;28;98125;-73
2023/07/10 00:18:38;;;;;;;;;;;;;;;24.19;32.65;100827.31;4940187;27;98560;-69
2023/07/10 00:21:04;;;;;;;;;;;;;;;24.15;32.53;100823.66;4931178;27;98080;-72
2023/07/10 00:23:30;;;;;;;;;;;;;;;24.10;32.85;100817.63;4930296;28;98174;-70
2023/07/10 00:25:57;;;;;;;;;;;;;;;24.06;32.68;100816.72;4930021;27;100303;-72
2023/07/10 00:28:23;;;;;;;;;;;;;;;24.01;32.58;100815.00;4933535;28;99199;-69
2023/07/10 00:30:49;;;;;;;;;;;;;;;23.97;32.44;100814.91;4944160;27;98230;-70
2023/07/10 00:33:17;;;;;;;;;;;;;;;23.94;32.86;100815.63;4927074;27;98004;-69
2023/07/10 00:35:44;;;;;;;;;;;;;;;23.90;32.78;100814.72;4929722;27;98216;-72
2023/07/10 00:38:28;;;;;;;;;;;;;;;23.87;32.76;100803.59;4926228;28;98025;-72
2023/07/10 00:40:54;;;;;;;;;;;;;;;23.84;32.85;100807.84;4949982;28;98792;-72
2023/07/10 00:43:28;;;;;;;;;;;;;;;23.80;32.55;100806.94;4928177;28;98206;-70
2023/07/10 00:45:54;;;;;;;;;;;;;;;23.77;32.68;100813.13;4939599;27;98093;-70
2023/07/10 00:48:32;;;;;;;;;;;;;;;23.75;32.78;100821.75;4929334;28;97907;-72
2023/07/10 00:50:59;;;;;;;;;;;;;;;23.71;32.79;100826.34;4942086;28;99205;-72
2023/07/10 00:53:34;;;;;;;;;;;;;;;23.69;32.94;100827.81;4930892;28;98225;-70
2023/07/10 00:56:00;;;;;;;;;;;;;;;23.66;32.72;100832.09;4929206;27;98490;-70
2023/07/10 00:58:31;;;;;;;;;;;;;;;23.63;32.96;100830.00;4931401;27;100119;-69
2023/07/10 01:00:59;;;;;;;;;;;;;;;23.61;32.66;100839.72;4958474;27;98258;-70
2023/07/10 01:03:25;;;;;;;;;;;;;;;23.56;32.99;100834.47;4962885;27;98074;-69
2023/07/10 01:05:51;;;;;;;;;;;;;;;23.52;32.69;100834.38;4927886;28;99039;-72
2023/07/10 01:08:17;;;;;;;;;;;;;;;23.47;33.02;100843.66;4945609;28;99403;-70
2023/07/10 01:10:44;;;;;;;;;;;;;;;23.40;32.82;100839.88;4943399;27;100570;-72
2023/07/10 01:13:10;;;;;;;;;;;;;;;23.34;32.96;100836.53;4918029;28;98296;-72
2023/07/10 01:15:36;;;;;;;;;;;;;;;23.30;33.06;100848.56;4929059;28;99724;-70
2023/07/10 01:18:05;;;;;;;;;;;;;;;23.26;33.01;100853.97;4920751;27;98892;-73
2023/07/10 01:20:45;;;;;;;;;;;;;;;23.24;33.07;100846.06;4928486;28;98349;-71
2023/07/10 01:23:11;;;;;;;;;;;;;;;23.23;33.09;100846.44;4939944;28;98279;-72
2023/07/10 01:25:48;;;;;;;;;;;;;;;23.20;33.11;100850.66;4927270;28;97852;-72
2023/07/10 01:28:16;;;;;;;;;;;;;;;23.20;32.89;100871.84;4943895;28;98528;-72
2023/07/10 01:30:43;;;;;;;;;;;;;;;23.20;32.95;100979.88;4945205;27;98148;-72
2023/07/10 01:33:22;;;;;;;;;;;;;;;23.21;33.28;100999.91;4930091;27;98350;-70
2023/07/10 01:35:49;;;;;;;;;;;;;;;23.18;32.95;100995.09;4920576;28;99618;-71
2023/07/10 01:38:16;;;;;;;;;;;;;;;23.18;33.04;100982.16;4928723;27;98249;-72
2023/07/10 01:40:48;;;;;;;;;;;;;;;23.19;33.02;101003.03;4925893;28;98156;-71
2023/07/10 01:43:14;;;;;;;;;;;;;;;23.23;32.90;100995.69;4923396;28;99057;-70
2023/07/10 01:45:45;;;;;;;;;;;;;;;23.28;32.90;100994.66;4925856;28;98039;-70
2023/07/10 01:48:11;;;;;;;;;;;;;;;23.33;32.98;100993.66;4924034;28;98284;-72
2023/07/10 01:50:38;;;;;;;;;;;;;;;23.37;32.90;100983.56;4927344;28;98080;-72
2023/07/10 01:53:06;;;;;;;;;;;;;;;23.41;33.07;100979.78;4941590;28;98844;-70
2023/07/10 01:55:33;;;;;;;;;;;;;;;23.47;32.96;100977.63;4942232;28;99452;-70
2023/07/10 01:58:00;;;;;;;;;;;;;;;23.50;32.85;100975.00;4947715;28;99361;-70
2023/07/10 02:00:27;;;;;;;;;;;;;;;23.56;32.71;100970.06;4928336;27;98215;-72
2023/07/10 02:02:53;;;;;;;;;;;;;;;23.60;32.93;100970.19;4918535;28;98512;-72
2023/07/10 02:05:19;;;;;;;;;;;;;;;23.64;32.97;100969.16;4942927;28;98410;-70
2023/07/10 02:07:45;;;;;;;;;;;;;;;23.68;32.84;100953.59;4927062;27;98091;-72
2023/07/10 02:10:12;;;;;;;;;;;;;;;23.72;32.79;100959.22;4945511;28;98289;-72
2023/07/10 02:12:38;;;;;;;;;;;;;;;23.75;32.80;100947.53;4928326;27;98173;-70
2023/07/10 02:15:05;;;;;;;;;;;;;;;23.80;32.91;100943.72;4921651;27;98347;-72
2023/07/10 02:17:31;;;;;;;;;;;;;;;23.82;32.72;100936.75;4944067;27;98049;-69
2023/07/10 02:19:57;;;;;;;;;;;;;;;23.83;32.70;100923.78;4943446;27;98595;-73
2023/07/10 02:22:23;;;;;;;;;;;;;;;23.85;32.65;100915.97;4928950;27;99693;-72
2023/07/10 02:24:49;;;;;;;;;;;;;;;23.85;32.65;100882.94;4928745;27;100579;-72
2023/07/10 02:27:15;;;;;;;;;;;;;;;23.81;32.86;100871.03;4928354;27;98231;-69
2023/07/10 02:29:45;;;;;;;;;;;;;;;23.73;33.17;100845.25;4940221;27;97868;-72
2023/07/10 02:32:11;;;;;;;;;;;;;;;23.64;33.05;100828.84;4922395;28;98566;-69
2023/07/10 02:34:37;;;;;;;;;;;;;;;23.55;32.97;100811.66;4928655;28;98298;-71
2023/07/10 02:37:03;;;;;;;;;;;;;;;23.47;33.37;100798.84;4928825;27;97991;-71
2023/07/10 02:39:30;;;;;;;;;;;;;;;23.37;33.26;100763.56;4942051;27;98021;-71
2023/07/10 02:41:56;;;;;;;;;;;;;;;23.27;33.25;100749.16;4921393;28;98483;-72
2023/07/10 02:44:23;;;;;;;;;;;;;;;23.17;33.44;100738.63;4932267;28;98945;-72
2023/07/10 02:46:49;;;;;;;;;;;;;;;23.07;33.51;100722.59;4940083;28;98117;-69
2023/07/10 02:49:16;;;;;;;;;;;;;;;23.02;33.51;100714.56;4955349;28;98044;-71
2023/07/10 02:51:42;;;;;;;;;;;;;;;22.99;33.48;100720.75;4936121;27;99327;-73
2023/07/10 02:54:12;;;;;;;;;;;;;;;22.99;33.67;100724.34;4939114;28;98062;-73
2023/07/10 02:56:39;;;;;;;;;;;;;;;23.01;33.28;100755.00;4926584;28;98056;-69
2023/07/10 02:59:06;;;;;;;;;;;;;;;23.02;33.53;100770.34;4919967;27;99791;-69
2023/07/10 03:01:32;;;;;;;;;;;;;;;23.04;33.61;100764.53;4946678;28;98843;-69
2023/07/10 03:03:58;;;;;;;;;;;;;;;23.05;33.20;100776.31;4923103;27;99000;-69
2023/07/10 03:06:27;;;;;;;;;;;;;;;23.08;33.51;100775.63;4941383;27;97951;-72
2023/07/10 03:08:53;;;;;;;;;;;;;;;23.08;33.57;100770.94;4929709;28;98307;-69
2023/07/10 03:11:22;;;;;;;;;;;;;;;23.08;33.29;100768.19;4930717;28;98095;-70
2023/07/10 03:13:48;;;;;;;;;;;;;;;23.07;33.57;100761.09;4942378;27;98288;-69
2023/07/10 03:16:15;;;;;;;;;;;;;;;23.02;33.35;100753.84;4927944;28;98581;-72
2023/07/10 03:18:41;;;;;;;;;;;;;;;23.02;33.54;100753.84;4925491;28;98088;-72
2023/07/10 03:21:08;;;;;;;;;;;;;;;23.03;33.48;100757.44;4928262;28;98999;-72
2023/07/10 03:23:34;;;;;;;;;;;;;;;23.02;33.53;100756.59;4940882;28;98250;-70
2023/07/10 03:26:01;;;;;;;;;;;;;;;23.03;33.52;100752.72;4925084;28;99305;-70
2023/07/10 03:28:28;;;;;;;;;;;;;;;23.01;33.46;100754.22;4946320;28;98141;-72
2023/07/10 03:30:54;;;;;;;;;;;;;;;23.02;33.53;100773.09;4942557;27;98208;-69
2023/07/10 03:33:22;;;;;;;;;;;;;;;23.02;33.44;100819.81;4927016;28;97832;-72
2023/07/10 03:35:50;;;;;;;;;;;;;;;23.01;33.41;100864.94;4937949;27;99130;-69
2023/07/10 03:38:16;;;;;;;;;;;;;;;23.00;33.71;100912.03;4925671;28;97996;-72
2023/07/10 03:40:53;;;;;;;;;;;;;;;22.99;33.78;100937.88;4938281;28;99327;-69
2023/07/10 03:43:20;;;;;;;;;;;;;;;22.97;33.68;100956.69;4939856;28;98131;-71
2023/07/10 03:45:47;;;;;;;;;;;;;;;22.95;33.80;100953.44;4897867;28;98396;-70
2023/07/10 03:48:14;;;;;;;;;;;;;;;22.90;33.70;100907.72;4926934;28;98429;-71
2023/07/10 03:50:40;;;;;;;;;;;;;;;22.82;33.85;100858.34;4922405;27;98976;-69
2023/07/10 03:53:07;;;;;;;;;;;;;;;22.63;34.02;100799.25;4924991;28;98346;-69
2023/07/10 03:55:34;;;;;;;;;;;;;;;22.42;34.25;100771.88;4919167;28;98033;-69
2023/07/10 03:58:01;;;;;;;;;;;;;;;22.27;34.15;100765.06;4923577;27;98124;-70
2023/07/10 04:00:28;;;;;;;;;;;;;;;22.20;34.38;100759.31;4923319;27;98140;-70
2023/07/10 04:02:55;;;;;;;;;;;;;;;22.19;34.23;100743.19;4924323;28;98785;-71
2023/07/10 04:05:21;;;;;;;;;;;;;;;22.14;34.38;100760.69;4925955;27;98443;-71
2023/07/10 04:07:49;;;;;;;;;;;;;;;22.08;34.39;100751.03;4942855;28;99357;-70
2023/07/10 04:10:16;;;;;;;;;;;;;;;22.04;34.56;100761.88;4921982;28;98639;-69
2023/07/10 04:12:43;;;;;;;;;;;;;;;22.06;34.27;100772.53;4939517;27;98110;-71
2023/07/10 04:15:10;;;;;;;;;;;;;;;22.11;34.24;100786.03;4926925;28;98074;-69
2023/07/10 04:17:36;;;;;;;;;;;;;;;22.18;34.47;100780.03;4925941;28;98051;-71
2023/07/10 04:20:02;;;;;;;;;;;;;;;22.22;34.13;100773.53;4924052;28;97861;-71
2023/07/10 04:22:29;;;;;;;;;;;;;;;22.27;34.39;100778.00;4922760;27;98199;-72
2023/07/10 04:25:03;;;;;;;;;;;;;;;22.30;34.23;100771.84;4927602;27;98228;-70
2023/07/10 04:27:30;;;;;;;;;;;;;;;22.33;34.23;100767.63;4940393;27;98951;-72
2023/07/10 04:29:57;;;;;;;;;;;;;;;22.33;34.12;100759.38;4936865;28;99670;-72
2023/07/10 04:32:23;;;;;;;;;;;;;;;22.33;34.15;100762.94;4927662;28;98633;-72
2023/07/10 04:34:50;;;;;;;;;;;;;;;22.32;34.24;100764.03;4929140;27;97928;-72
2023/07/10 04:37:16;;;;;;;;;;;;;;;22.36;34.09;100777.91;4931603;28;98044;-72
2023/07/10 04:39:44;;;;;;;;;;;;;;;22.37;34.07;100777.59;4924260;27;98300;-73
2023/07/10 04:42:14;;;;;;;;;;;;;;;22.36;34.22;100767.75;4946923;27;99007;-72
2023/07/10 04:44:41;;;;;;;;;;;;;;;22.32;34.19;100761.31;4924853;28;98195;-73
2023/07/10 04:47:07;;;;;;;;;;;;;;;22.30;34.37;100758.09;4927012;28;98018;-71
2023/07/10 04:49:34;;;;;;;;;;;;;;;22.32;34.24;100760.50;4927103;27;98014;-73
2023/07/10 04:52:00;;;;;;;;;;;;;;;22.37;34.35;100757.56;4935640;27;97977;-71
2023/07/10 04:54:27;;;;;;;;;;;;;;;22.39;34.12;100755.25;4947335;28;100476;-73
2023/07/10 04:56:54;;;;;;;;;;;;;;;22.43;34.23;100756.19;4972845;27;98142;-73
2023/07/10 04:59:21;;;;;;;;;;;;;;;22.49;34.14;100744.66;4927668;28;99230;-71
2023/07/10 05:01:47;;;;;;;;;;;;;;;22.54;33.96;100751.88;4926629;28;101473;-72
2023/07/10 05:04:14;;;;;;;;;;;;;;;22.57;34.12;100742.16;4921151;27;98234;-74
2023/07/10 05:06:41;;;;;;;;;;;;;;;22.56;34.29;100755.09;4938746;27;98089;-73
2023/07/10 05:09:07;;;;;;;;;;;;;;;22.54;34.12;100749.13;4930703;27;100527;-73
2023/07/10 05:11:34;;;;;;;;;;;;;;;22.54;34.26;100743.63;4927755;27;100192;-71
2023/07/10 05:14:00;;;;;;;;;;;;;;;22.57;34.41;100737.44;4938500;28;98431;-71
2023/07/10 05:16:27;;;;;;;;;;;;;;;22.62;34.29;100741.91;4918490;28;98297;-73
2023/07/10 05:18:53;;;;;;;;;;;;;;;22.68;34.32;100746.84;4930296;28;99145;-71
2023/07/10 05:21:20;;;;;;;;;;;;;;;22.78;34.19;100745.59;4939876;28;97954;-71
2023/07/10 05:23:47;;;;;;;;;;;;;;;22.89;34.06;100735.75;4928307;28;98096;-71
2023/07/10 05:26:19;;;;;;;;;;;;;;;22.99;34.00;100731.75;4928881;27;97927;-71
2023/07/10 05:28:46;;;;;;;;;;;;;;;22.98;34.22;100733.69;4930157;27;98343;-73
2023/07/10 05:31:12;;;;;;;;;;;;;;;23.01;34.21;100743.22;4926996;27;98259;-71
2023/07/10 05:33:39;;;;;;;;;;;;;;;23.14;34.00;100736.56;4926517;27;98289;-71
2023/07/10 05:36:10;;;;;;;;;;;;;;;23.45;33.84;100735.13;4941033;27;97987;-74
2023/07/10 05:38:36;;;;;;;;;;;;;;;23.77;33.50;100736.06;4945279;27;98368;-71
2023/07/10 05:41:03;;;;;;;;;;;;;;;24.29;33.30;100734.31;4929594;28;99292;-74
2023/07/10 05:43:29;;;;;;;;;;;;;;;24.69;33.36;100735.00;4937764;28;98471;-71
2023/07/10 05:45:55;;;;;;;;;;;;;;;24.93;33.04;100738.72;4943375;28;98075;-72
2023/07/10 05:48:22;;;;;;;;;;;;;;;25.05;33.17;100737.81;4945153;27;98138;-72
2023/07/10 05:50:48;;;;;;;;;;;;;;;25.09;33.41;100750.56;4922578;28;99831;-74
2023/07/10 05:53:17;;;;;;;;;;;;;;;24.91;33.53;100766.63;4942329;28;98396;-70
2023/07/10 05:55:47;;;;;;;;;;;;;;;24.73;33.80;100828.81;4926067;27;98048;-74
2023/07/10 05:58:14;;;;;;;;;;;;;;;24.59;34.32;100920.13;4927112;28;99340;-71
2023/07/10 06:00:41;;;;;;;;;;;;;;;24.45;34.12;100917.81;4930260;27;107676;-75
2023/07/10 06:03:07;;;;;;;;;;;;;;;24.32;34.43;100861.13;4939422;27;102483;-71
2023/07/10 06:05:33;;;;;;;;;;;;;;;24.21;34.30;100851.78;4940355;28;98511;-71
2023/07/10 06:08:00;;;;;;;;;;;;;;;24.13;34.71;100855.44;4926572;28;98197;-75
2023/07/10 06:10:27;;;;;;;;;;;;;;;24.04;34.54;100874.06;4924047;28;98097;-74
2023/07/10 06:12:55;;;;;;;;;;;;;;;23.93;34.63;100844.28;4960664;28;98797;-74
2023/07/10 06:15:21;;;;;;;;;;;;;;;23.77;35.09;100810.38;4938747;28;98650;-71
2023/07/10 06:17:47;;;;;;;;;;;;;;;23.60;35.00;100792.16;4938510;28;98141;-74
2023/07/10 06:20:15;;;;;;;;;;;;;;;23.48;35.18;100782.00;4925158;28;98648;-72
2023/07/10 06:22:41;;;;;;;;;;;;;;;23.37;35.01;100769.06;4936243;28;98062;-71
2023/07/10 06:25:07;;;;;;;;;;;;;;;23.25;35.30;100786.38;4936958;28;98356;-73
2023/07/10 06:27:34;;;;;;;;;;;;;;;23.12;35.11;100793.03;4943004;28;98050;-71
2023/07/10 06:30:00;;;;;;;;;;;;;;;23.05;35.05;100812.03;4918496;28;98027;-71
2023/07/10 06:32:27;;;;;;;;;;;;;;;22.98;35.29;100809.84;4918255;28;98112;-72
2023/07/10 06:34:54;;;;;;;;;;;;;;;22.90;35.27;100791.50;4921154;28;98146;-71
2023/07/10 06:37:20;;;;;;;;;;;;;;;22.87;35.24;100778.44;4924543;28;100366;-71
2023/07/10 06:40:06;;;;;;;;;;;;;;;22.84;35.41;100763.47;4923302;28;99910;-71
2023/07/10 06:42:33;;;;;;;;;;;;;;;22.79;35.46;100741.69;4935132;28;97980;-74
2023/07/10 06:44:59;;;;;;;;;;;;;;;22.81;35.25;100730.38;4936595;28;98277;-74
2023/07/10 06:47:25;;;;;;;;;;;;;;;22.77;35.41;100716.50;4938342;28;98057;-71
2023/07/10 06:49:52;;;;;;;;;;;;;;;22.73;35.43;100716.41;4919722;28;98713;-74
2023/07/10 06:52:19;;;;;;;;;;;;;;;22.71;35.31;100706.88;4925784;28;97961;-74
2023/07/10 06:54:47;;;;;;;;;;;;;;;22.71;35.30;100707.69;4937046;28;98192;-73
2023/07/10 06:57:14;;;;;;;;;;;;;;;22.70;35.39;100691.56;4938436;28;98009;-71
2023/07/10 06:59:41;;;;;;;;;;;;;;;22.69;35.20;100663.28;4927639;28;98147;-71
2023/07/10 07:02:11;;;;;;;;;;;;;;;22.71;35.30;100628.00;4921623;28;98817;-74
2023/07/10 07:04:41;;;;;;;;;;;;;;;22.77;35.24;100625.84;4924268;28;99821;-70
2023/07/10 07:07:08;;;;;;;;;;;;;;;22.86;35.26;100669.69;4926366;28;98482;-71
2023/07/10 07:09:36;;;;;;;;;;;;;;;23.00;35.05;100662.72;4940492;28;99472;-73
2023/07/10 07:12:03;;;;;;;;;;;;;;;23.20;35.05;100669.19;4924538;28;98032;-73
2023/07/10 07:14:29;;;;;;;;;;;;;;;23.40;34.69;100672.91;4935993;28;97954;-70
2023/07/10 07:16:56;;;;;;;;;;;;;;;23.64;34.80;100669.28;4919660;28;97896;-71
2023/07/10 07:19:22;;;;;;;;;;;;;;;23.88;34.64;100679.38;4923358;28;98170;-71
2023/07/10 07:21:49;;;;;;;;;;;;;;;24.18;34.28;100695.50;4925539;28;98232;-73
2023/07/10 07:24:16;;;;;;;;;;;;;;;24.47;34.28;100728.16;4938321;28;98029;-73
2023/07/10 07:26:44;;;;;;;;;;;;;;;24.79;33.79;100730.09;4938795;28;99462;-74
2023/07/10 07:29:11;;;;;;;;;;;;;;;25.07;33.96;100727.22;4940661;28;98805;-70
2023/07/10 07:31:39;;;;;;;;;;;;;;;25.35;33.82;100727.91;4938561;28;98274;-73
2023/07/10 07:34:05;;;;;;;;;;;;;;;25.57;33.75;100723.63;4940733;28;98022;-74
2023/07/10 07:36:34;;;;;;;;;;;;;;;25.79;33.51;100738.69;4925151;28;98492;-74
2023/07/10 07:39:03;;;;;;;;;;;;;;;26.27;33.35;100735.66;4918314;28;98374;-74
2023/07/10 07:41:31;;;;;;;;;;;;;;;27.53;32.50;100741.97;4925497;28;100219;-70
2023/07/10 07:44:00;;;;;;;;;;;;;;;28.84;31.62;100733.44;4924644;28;99590;-74
2023/07/10 07:46:27;;;;;;;;;;;;;;;29.08;31.58;100743.97;4922895;28;98269;-70
2023/07/10 07:48:58;;;;;;;;;;;;;;;29.51;31.87;100751.72;4924117;28;99658;-74
2023/07/10 07:51:25;;;;;;;;;;;;;;;30.96;30.96;100758.00;4937271;28;98938;-75
2023/07/10 07:54:03;;;;;;;;;;;;;;;31.86;30.68;100762.16;4923056;28;97959;-70
2023/07/10 07:56:29;;;;;;;;;;;;;;;33.21;29.79;100763.13;4922049;28;97973;-71
2023/07/10 07:58:55;;;;;;;;;;;;;;;34.22;29.81;100764.69;4926269;28;98639;-72
2023/07/10 08:01:23;;;;;;;;;;;;;;;35.14;29.08;100765.19;4926836;28;98610;-75
2023/07/10 08:03:49;;;;;;;;;;;;;;;36.00;28.89;100758.66;4917866;28;97983;-79
2023/07/10 08:06:15;;;;;;;;;;;;;;;36.69;28.75;100755.03;4923680;28;100479;-77
2023/07/10 08:08:42;;;;;;;;;;;;;;;36.28;29.72;100745.97;4922045;28;98359;-76
2023/07/10 08:11:08;;;;;;;;;;;;;;;35.98;30.14;100737.88;4926495;28;98148;-79
2023/07/10 08:13:35;;;;;;;;;;;;;;;37.18;29.04;100740.88;4943544;27;97971;-78
2023/07/10 08:16:04;;;;;;;;;;;;;;;37.63;29.35;100742.84;4930861;28;98195;-77
2023/07/10 08:18:31;;;;;;;;;;;;;;;38.65;28.65;100725.94;4950022;27;98031;-80
2023/07/10 08:21:02;;;;;;;;;;;;;;;39.62;27.89;100729.69;4946565;27;98485;-77
2023/07/10 08:23:28;;;;;;;;;;;;;;;40.48;27.92;100727.06;4947278;28;98790;-77
2023/07/10 08:25:54;;;;;;;;;;;;;;;41.20;27.44;100726.78;4940488;28;98369;-78
2023/07/10 08:28:22;;;;;;;;;;;;;;;41.80;27.55;100719.56;4931688;27;98141;-78
2023/07/10 08:30:48;;;;;;;;;;;;;;;42.49;27.34;100715.78;4941773;27;98232;-78
2023/07/10 08:33:15;;;;;;;;;;;;;;;40.51;28.91;100714.03;4927227;28;98115;-76
2023/07/10 08:35:41;;;;;;;;;;;;;;;41.05;28.37;100709.69;4945664;27;98183;-79
2023/07/10 08:38:07;;;;;;;;;;;;;;;41.92;27.99;100704.44;4920652;28;99433;-76
2023/07/10 08:40:37;;;;;;;;;;;;;;;41.80;28.17;100705.41;4943082;28;98446;-82
2023/07/10 08:43:30;;;;;;;;;;;;;;;41.13;28.77;100688.31;4932279;27;98393;-77
2023/07/10 08:46:20;;;;;;;;;;;;;;;42.27;28.11;100684.94;4956118;27;98145;-77
2023/07/10 08:49:17;;;;;;;;;;;;;;;43.13;27.75;100677.63;4947279;27;97790;-77
2023/07/10 08:52:09;;;;;;;;;;;;;;;44.04;27.36;100672.91;4978172;27;98261;-79
2023/07/10 08:54:35;;;;;;;;;;;;;;;44.45;27.05;100669.31;4946726;27;98183;-77
2023/07/10 08:57:17;;;;;;;;;;;;;;;44.76;26.92;100677.16;4932191;27;98061;-77
2023/07/10 08:59:46;;;;;;;;;;;;;;;45.10;27.08;100674.69;4925104;28;101083;-79
2023/07/10 09:02:38;;;;;;;;;;;;;;;45.33;26.93;100667.91;4950490;28;99327;-77
2023/07/10 09:05:35;;;;;;;;;;;;;;;45.72;27.04;100661.75;4949391;27;98330;-77
2023/07/10 09:08:11;;;;;;;;;;;;;;;46.17;26.86;100656.31;4941432;27;98150;-77
2023/07/10 09:10:43;;;;;;;;;;;;;;;46.44;26.59;100644.25;4928995;27;98164;-80
2023/07/10 09:13:14;;;;;;;;;;;;;;;46.29;26.92;100635.16;4931863;28;98253;-77
2023/07/10 09:15:49;;;;;;;;;;;;;;;45.25;27.69;100629.84;4935505;27;97929;-78
2023/07/10 09:18:36;;;;;;;;;;;;;;;45.89;27.01;100625.66;4965251;28;98364;-75
2023/07/10 09:21:21;;;;;;;;;;;;;;;46.67;26.61;100635.81;4950539;27;99695;-77
2023/07/10 09:23:48;;;;;;;;;;;;;;;44.49;28.33;100655.66;4926297;28;98039;-75
2023/07/10 09:26:26;;;;;;;;;;;;;;;42.16;30.40;100665.63;4931611;28;98210;-76
2023/07/10 09:29:10;;;;;;;;;;;;;;;40.51;31.14;100651.91;4924671;28;108880;-77
2023/07/10 09:31:44;;;;;;;;;;;;;;;39.84;31.18;100642.22;4976475;27;98691;-77
2023/07/10 09:34:11;;;;;;;;;;;;;;;40.09;30.66;100646.84;4938411;28;98107;-75
2023/07/10 09:36:37;;;;;;;;;;;;;;;39.49;30.88;100641.59;4931482;27;98121;-78
2023/07/10 09:39:04;;;;;;;;;;;;;;;38.40;31.88;100651.59;4930524;28;98089;-74
2023/07/10 09:41:30;;;;;;;;;;;;;;;37.77;32.01;100655.25;4932218;27;98033;-78
2023/07/10 09:44:06;;;;;;;;;;;;;;;37.14;31.96;100648.31;4928481;28;98076;-77
2023/07/10 09:46:34;;;;;;;;;;;;;;;36.55;32.64;100658.75;4958752;28;98110;-74
2023/07/10 09:49:02;;;;;;;;;;;;;;;37.41;31.63;100652.75;4941780;27;98552;-78
2023/07/10 09:51:29;;;;;;;;;;;;;;;39.38;29.53;100655.31;4929562;27;98162;-74
2023/07/10 09:54:03;;;;;;;;;;;;;;;41.08;28.54;100648.63;4929826;28;98340;-79
2023/07/10 09:56:38;;;;;;;;;;;;;;;42.07;27.89;100642.28;4925419;27;98108;-75
2023/07/10 09:59:21;;;;;;;;;;;;;;;42.73;27.75;100641.34;4926253;28;97884;-79
2023/07/10 10:01:52;;;;;;;;;;;;;;;43.15;27.63;100646.72;4946915;28;98873;-79
2023/07/10 10:04:24;;;;;;;;;;;;;;;41.03;29.51;100654.91;4934462;27;98370;-75
2023/07/10 10:07:04;;;;;;;;;;;;;;;39.70;30.42;100649.22;4924949;27;97914;-75
2023/07/10 10:09:31;;;;;;;;;;;;;;;38.77;31.27;100635.78;4930339;27;98083;-75
2023/07/10 10:12:34;;;;;;;;;;;;;;;40.23;29.76;100640.59;4940861;28;97983;-75
2023/07/10 10:15:06;;;;;;;;;;;;;;;41.86;28.54;100636.44;4937782;27;98393;-75
2023/07/10 10:17:35;;;;;;;;;;;;;;;42.71;28.09;100633.31;4935182;28;98116;-79
2023/07/10 10:20:08;;;;;;;;;;;;;;;43.18;28.00;100634.41;4959940;28;98841;-80
2023/07/10 10:22:34;;;;;;;;;;;;;;;42.47;28.71;100629.72;4929654;28;98092;-75
2023/07/10 10:25:00;;;;;;;;;;;;;;;42.25;28.75;100630.88;4945119;27;104396;-80
2023/07/10 10:27:37;;;;;;;;;;;;;;;43.31;28.09;100634.09;4928654;27;98198;-79
2023/07/10 10:30:12;;;;;;;;;;;;;;;43.51;28.26;100625.72;4943268;28;98060;-75
2023/07/10 10:32:55;;;;;;;;;;;;;;;44.24;27.68;100625.94;4972108;27;99106;-79
2023/07/10 10:35:42;;;;;;;;;;;;;;;42.86;28.59;100617.09;4938061;28;100477;-75
2023/07/10 10:38:27;;;;;;;;;;;;;;;43.97;27.80;100618.63;4940477;27;98369;-79
2023/07/10 10:41:19;;;;;;;;;;;;;;;44.59;27.63;100612.41;4957120;28;98686;-77
2023/07/10 10:43:53;;;;;;;;;;;;;;;44.71;27.75;100619.00;4941457;27;98562;-76
2023/07/10 10:46:22;;;;;;;;;;;;;;;44.75;27.68;100604.59;4922137;28;98120;-77
2023/07/10 10:49:31;;;;;;;;;;;;;;;45.51;27.07;100604.19;4954829;27;98295;-76
2023/07/10 10:52:12;;;;;;;;;;;;;;;45.90;27.00;100601.59;4924274;27;98807;-76
2023/07/10 10:54:44;;;;;;;;;;;;;;;45.42;27.50;100607.22;4960360;27;98039;-81
2023/07/10 10:57:25;;;;;;;;;;;;;;;44.75;28.17;100602.53;4962419;28;98121;-81
2023/07/10 11:00:14;;;;;;;;;;;;;;;44.17;28.84;100603.63;4962545;28;97979;-81
2023/07/10 11:03:05;;;;;;;;;;;;;;;43.47;28.85;100604.47;4956980;27;98158;-80
2023/07/10 11:05:41;;;;;;;;;;;;;;;44.54;28.15;100598.94;4963041;27;98165;-76
2023/07/10 11:08:30;;;;;;;;;;;;;;;43.26;29.25;100600.78;4930988;27;98881;-76
2023/07/10 11:10:56;;;;;;;;;;;;;;;42.15;30.09;100598.19;4933052;28;98269;-80
2023/07/10 11:13:35;;;;;;;;;;;;;;;42.76;28.98;100603.50;4947278;28;119536;-79
2023/07/10 11:16:02;;;;;;;;;;;;;;;42.72;28.97;100595.22;4950224;27;99097;-81
2023/07/10 11:18:29;;;;;;;;;;;;;;;42.41;29.21;100592.81;4933276;28;99369;-77
2023/07/10 11:20:56;;;;;;;;;;;;;;;41.52;30.17;100605.78;4932390;28;98144;-79
2023/07/10 11:23:32;;;;;;;;;;;;;;;42.03;29.60;100616.19;4944183;28;100248;-77
2023/07/10 11:26:01;;;;;;;;;;;;;;;41.01;30.05;100621.47;4947922;28;98240;-78
2023/07/10 11:28:28;;;;;;;;;;;;;;;40.60;30.36;100617.25;4934225;27;98847;-77
2023/07/10 11:31:17;;;;;;;;;;;;;;;39.93;30.82;100618.88;4945660;27;101466;-77
2023/07/10 11:33:44;;;;;;;;;;;;;;;39.37;30.95;100612.25;4942779;27;97997;-77
2023/07/10 11:36:17;;;;;;;;;;;;;;;38.77;31.20;100621.72;4936304;27;98042;-77
2023/07/10 11:39:11;;;;;;;;;;;;;;;38.38;31.94;100613.91;4946905;28;97941;-78
2023/07/10 11:41:44;;;;;;;;;;;;;;;39.16;30.84;100622.31;4972233;27;99596;-78
2023/07/10 11:44:19;;;;;;;;;;;;;;;39.15;30.89;100623.56;4962166;28;98130;-80
2023/07/10 11:47:00;;;;;;;;;;;;;;;39.17;30.88;100629.50;4961694;27;98052;-79
2023/07/10 11:49:27;;;;;;;;;;;;;;;39.63;30.01;100624.13;4970013;28;97998;-77
2023/07/10 11:52:15;;;;;;;;;;;;;;;39.43;30.44;100629.38;4947408;27;98060;-78
2023/07/10 11:54:47;;;;;;;;;;;;;;;38.99;30.94;100627.38;4961131;28;98134;-78
2023/07/10 11:57:25;;;;;;;;;;;;;;;38.77;31.01;100615.31;4958830;28;97881;-77
2023/07/10 12:00:03;;;;;;;;;;;;;;;38.71;31.08;100612.31;4945963;28;99316;-79
2023/07/10 12:02:33;;;;;;;;;;;;;;;38.72;31.06;100627.16;4944658;28;98236;-78
2023/07/10 12:05:01;;;;;;;;;;;;;;;38.73;30.67;100625.91;4970198;27;98026;-77
2023/07/10 12:07:27;;;;;;;;;;;;;;;38.91;30.15;100633.72;4965479;28;98833;-79
2023/07/10 12:09:56;;;;;;;;;;;;;;;38.70;30.39;100630.41;4932338;28;97915;-78
2023/07/10 12:12:28;;;;;;;;;;;;;;;38.59;30.79;100621.56;4949309;28;98300;-79
2023/07/10 12:14:54;;;;;;;;;;;;;;;38.34;30.80;100630.91;4928812;28;98516;-77
2023/07/10 12:17:21;;;;;;;;;;;;;;;39.15;30.35;100629.19;4940378;28;117372;-78
2023/07/10 12:19:47;;;;;;;;;;;;;;;39.08;30.05;100620.22;4944575;28;98635;-77
2023/07/10 12:22:20;;;;;;;;;;;;;;;39.04;30.06;100626.78;4930470;28;98216;-78
2023/07/10 12:24:55;;;;;;;;;;;;;;;39.43;30.28;100620.91;4946810;28;98315;-77
2023/07/10 12:27:22;;;;;;;;;;;;;;;39.55;30.25;100624.88;4929872;28;98374;-78
2023/07/10 12:29:49;;;;;;;;;;;;;;;39.58;30.21;100616.28;4930333;28;98256;-77
2023/07/10 12:32:16;;;;;;;;;;;;;;;39.66;29.93;100623.19;4932749;28;110681;-78
2023/07/10 12:34:43;;;;;;;;;;;;;;;39.38;30.01;100621.50;4933627;28;99532;-78
2023/07/10 12:37:14;;;;;;;;;;;;;;;38.76;30.40;100622.97;4946887;28;98900;-78
2023/07/10 12:39:42;;;;;;;;;;;;;;;38.29;31.05;100623.03;4924088;28;98217;-79
2023/07/10 12:42:47;;;;;;;;;;;;;;;38.37;30.81;100632.81;4940180;28;98070;-77
2023/07/10 12:45:26;;;;;;;;;;;;;;;38.79;30.16;100627.72;4907637;28;100233;-76
2023/07/10 12:48:01;;;;;;;;;;;;;;;38.92;30.40;100638.13;4911623;28;100012;-77
2023/07/10 12:50:48;;;;;;;;;;;;;;;39.30;30.07;100651.97;4927961;28;98540;-78